createdAt,value
2022-10-04T00:00:11.036Z,101126.52
2022-10-04T00:04:24.226Z,101130.87
2022-10-04T00:08:03.888Z,101129.50
2022-10-04T00:11:53.831Z,101134.79
2022-10-04T00:15:44.023Z,101134.48
2022-10-04T00:19:30.316Z,101133.20
2022-10-04T00:23:17.922Z,101131.55
2022-10-04T00:27:05.438Z,101135.86
2022-10-04T00:31:00.325Z,101135.15
2022-10-04T00:34:47.056Z,101133.89
2022-10-04T00:38:35.784Z,101138.61
2022-10-04T00:42:27.385Z,101135.16
2022-10-04T00:46:17.218Z,101139.27
2022-10-04T00:49:57.701Z,101137.17
2022-10-04T00:53:45.297Z,101135.55
2022-10-04T00:57:41.638Z,101134.95
2022-10-04T01:01:29.173Z,101131.09
2022-10-04T01:05:40.598Z,101129.39
2022-10-04T01:09:33.926Z,101127.55
2022-10-04T01:13:30.421Z,101125.69
2022-10-04T01:17:17.635Z,101133.79
2022-10-04T01:21:11.282Z,101130.48
2022-10-04T01:24:58.691Z,101130.33
2022-10-04T01:28:44.629Z,101131.38
2022-10-04T01:32:25.099Z,101128.15
2022-10-04T01:36:12.681Z,101133.56
2022-10-04T01:40:00.092Z,101137.08
2022-10-04T01:43:53.434Z,101136.77
2022-10-04T01:47:40.525Z,101135.64
2022-10-04T01:51:27.976Z,101141.32
2022-10-04T01:55:24.754Z,101143.52
2022-10-04T01:59:14.251Z,101143.27
2022-10-04T02:02:49.456Z,101150.10
2022-10-04T02:06:28.362Z,101151.92
2022-10-04T02:10:16.200Z,101151.77
2022-10-04T02:14:03.621Z,101147.16
2022-10-04T02:17:36.443Z,101146.90
2022-10-04T02:21:06.413Z,101147.05
2022-10-04T02:24:45.063Z,101149.56
2022-10-04T02:28:20.842Z,101152.87
2022-10-04T02:31:59.110Z,101151.27
2022-10-04T02:35:21.116Z,101154.98
2022-10-04T02:39:08.964Z,101158.21
2022-10-04T02:42:54.864Z,101155.81
2022-10-04T02:46:42.358Z,101160.20
2022-10-04T02:50:33.072Z,101161.25
2022-10-04T02:54:28.157Z,101164.23
2022-10-04T02:57:58.182Z,101167.37
2022-10-04T03:01:27.246Z,101172.86
2022-10-04T03:05:11.133Z,101168.06
2022-10-04T03:08:58.812Z,101173.06
2022-10-04T03:12:22.641Z,101168.03
2022-10-04T03:16:10.230Z,101170.83
2022-10-04T03:19:50.175Z,101167.60
2022-10-04T03:23:37.586Z,101174.17
2022-10-04T03:27:19.066Z,101171.62
2022-10-04T03:31:06.834Z,101174.18
2022-10-04T03:34:52.707Z,101167.27
2022-10-04T03:38:40.238Z,101167.61
2022-10-04T03:42:20.759Z,101165.25
2022-10-04T03:46:08.568Z,101161.42
2022-10-04T03:49:56.067Z,101160.90
2022-10-04T03:53:43.677Z,101155.73
2022-10-04T03:57:31.385Z,101162.20
2022-10-04T04:01:19.162Z,101158.02
2022-10-04T04:05:09.491Z,101163.21
2022-10-04T04:08:52.951Z,101159.34
2022-10-04T04:12:39.559Z,101161.13
2022-10-04T04:16:30.007Z,101168.63
2022-10-04T04:20:11.308Z,101168.16
2022-10-04T04:23:58.829Z,101168.88
2022-10-04T04:27:36.083Z,101166.85
2022-10-04T04:31:23.750Z,101169.55
2022-10-04T04:35:28.647Z,101178.69
2022-10-04T04:39:20.147Z,101185.14
2022-10-04T04:43:08.689Z,101189.65
2022-10-04T04:46:56.182Z,101191.27
2022-10-04T04:50:46.471Z,101193.69
2022-10-04T04:54:34.039Z,101198.20
2022-10-04T04:58:17.775Z,101201.05
2022-10-04T05:02:14.126Z,101205.06
2022-10-04T05:06:11.061Z,101209.20
2022-10-04T05:10:02.319Z,101215.14
2022-10-04T05:13:49.488Z,101219.08
2022-10-04T05:17:38.227Z,101218.80
2022-10-04T05:21:25.548Z,101224.48
2022-10-04T05:25:16.547Z,101223.44
2022-10-04T05:28:59.678Z,101225.16
2022-10-04T05:33:08.150Z,101230.77
2022-10-04T05:36:53.804Z,101238.30
2022-10-04T05:40:42.951Z,101239.84
2022-10-04T05:44:25.521Z,101240.52
2022-10-04T05:48:13.207Z,101246.64
2022-10-04T05:51:59.281Z,101253.71
2022-10-04T05:55:52.505Z,101256.73
2022-10-04T05:59:47.847Z,101262.96
2022-10-04T06:03:40.480Z,101264.39
2022-10-04T06:07:30.579Z,101265.99
2022-10-04T06:11:39.101Z,101266.52
2022-10-04T06:15:41.695Z,101269.05
2022-10-04T06:19:46.463Z,101270.89
2022-10-04T06:23:36.606Z,101273.37
2022-10-04T06:27:06.541Z,101276.23
2022-10-04T06:30:56.976Z,101279.09
2022-10-04T06:34:40.902Z,101287.42
2022-10-04T06:38:49.697Z,101288.70
2022-10-04T06:42:40.154Z,101294.84
2022-10-04T06:46:45.633Z,101300.27
2022-10-04T06:50:31.373Z,101300.10
2022-10-04T06:54:39.891Z,101297.27
2022-10-04T06:58:17.909Z,101302.84
2022-10-04T07:01:53.595Z,101302.59
2022-10-04T07:05:30.165Z,101300.67
2022-10-04T07:09:17.547Z,101306.28
2022-10-04T07:13:05.363Z,101308.80
2022-10-04T07:16:55.694Z,101314.42
2022-10-04T07:20:39.526Z,101319.09
2022-10-04T07:24:22.951Z,101327.52
2022-10-04T07:28:03.769Z,101321.79
2022-10-04T07:31:52.289Z,101323.77
2022-10-04T07:35:46.080Z,101320.54
2022-10-04T07:39:33.629Z,101319.30
2022-10-04T07:43:23.040Z,101320.90
2022-10-04T07:47:35.361Z,101327.94
2022-10-04T07:51:16.918Z,101334.34
2022-10-04T07:55:06.948Z,101340.34
2022-10-04T07:58:52.832Z,101345.33
2022-10-04T08:02:34.640Z,101348.45
2022-10-04T08:06:38.767Z,101350.63
2022-10-04T08:10:24.792Z,101344.91
2022-10-04T08:14:30.351Z,101349.20
2022-10-04T08:17:51.023Z,101351.78
2022-10-04T08:21:43.059Z,101358.07
2022-10-04T08:25:38.835Z,101359.80
2022-10-04T08:29:13.226Z,101370.95
2022-10-04T08:32:37.049Z,101368.42
2022-10-04T08:36:22.622Z,101370.02
2022-10-04T08:40:18.764Z,101369.94
2022-10-04T08:44:10.729Z,101376.14
2022-10-04T08:47:56.194Z,101380.54
2022-10-04T08:51:39.073Z,101387.94
2022-10-04T08:55:26.494Z,101388.06
2022-10-04T08:59:12.021Z,101392.48
2022-10-04T09:03:11.164Z,101399.55
2022-10-04T09:06:56.149Z,101399.20
2022-10-04T09:10:40.386Z,101399.41
2022-10-04T09:14:33.835Z,101400.29
2022-10-04T09:18:11.530Z,101401.25
2022-10-04T09:22:13.936Z,101401.84
2022-10-04T09:26:02.054Z,101406.66
2022-10-04T09:29:57.172Z,101406.96
2022-10-04T09:34:05.985Z,101412.14
2022-10-04T09:37:51.797Z,101409.95
2022-10-04T09:41:48.344Z,101408.21
2022-10-04T09:45:54.342Z,101413.09
2022-10-04T09:49:34.693Z,101413.30
2022-10-04T09:53:20.158Z,101414.90
2022-10-04T09:57:20.966Z,101414.80
2022-10-04T10:01:09.663Z,101414.48
2022-10-04T10:05:06.430Z,101413.29
2022-10-04T10:08:58.218Z,101418.21
2022-10-04T10:12:56.092Z,101422.67
2022-10-04T10:16:32.519Z,101424.82
2022-10-04T10:20:16.662Z,101429.17
2022-10-04T10:23:44.903Z,101429.58
2022-10-04T10:27:42.683Z,101432.58
2022-10-04T10:31:25.705Z,101435.08
2022-10-04T10:35:30.401Z,101436.14
2022-10-04T10:39:21.589Z,101444.63
2022-10-04T10:43:18.327Z,101436.71
2022-10-04T10:47:12.242Z,101435.16
2022-10-04T10:51:20.131Z,101438.55
2022-10-04T10:55:12.683Z,101432.59
2022-10-04T10:59:00.216Z,101436.98
2022-10-04T11:03:13.554Z,101441.09
2022-10-04T11:07:00.999Z,101436.02
2022-10-04T11:11:02.305Z,101439.24
2022-10-04T11:14:52.822Z,101435.42
2022-10-04T11:18:39.367Z,101435.23
2022-10-04T11:22:38.158Z,101438.81
2022-10-04T11:26:29.124Z,101434.19
2022-10-04T11:30:18.253Z,101431.79
2022-10-04T11:34:21.208Z,101440.02
2022-10-04T11:38:07.291Z,101437.02
2022-10-04T11:41:54.551Z,101450.17
2022-10-04T11:45:44.752Z,101452.43
2022-10-04T11:49:30.287Z,101454.87
2022-10-04T11:53:23.217Z,101453.63
2022-10-04T11:57:21.155Z,101448.10
2022-10-04T12:00:47.041Z,101434.09
2022-10-04T12:04:36.187Z,101435.75
2022-10-04T12:08:25.515Z,101432.44
2022-10-04T12:12:26.442Z,101433.20
2022-10-04T12:16:13.950Z,101430.30
2022-10-04T12:33:00.542Z,101419.73
2022-10-04T12:37:09.368Z,101418.04
2022-10-04T12:41:12.458Z,101415.98
2022-10-04T12:45:20.089Z,101416.11
2022-10-04T12:49:08.967Z,101406.75
2022-10-04T12:53:00.817Z,101413.60
2022-10-04T12:56:55.487Z,101425.98
2022-10-04T13:00:53.691Z,101431.77
2022-10-04T13:04:54.642Z,101434.81
2022-10-04T13:08:42.240Z,101424.70
2022-10-04T13:12:39.957Z,101426.36
2022-10-04T13:20:58.939Z,101443.50
2022-10-04T13:25:21.436Z,101439.90
2022-10-04T13:29:05.724Z,101444.16
2022-10-04T13:32:55.350Z,101444.41
2022-10-04T13:36:50.991Z,101443.16
2022-10-04T13:40:45.981Z,101445.51
2022-10-04T13:44:50.781Z,101442.08
2022-10-04T13:48:47.589Z,101441.95
2022-10-04T13:52:50.394Z,101440.38
2022-10-04T13:56:56.841Z,101442.70
2022-10-04T14:00:28.489Z,101444.34
2022-10-04T14:04:09.603Z,101442.14
2022-10-04T14:07:43.813Z,101445.14
2022-10-04T14:11:42.214Z,101446.85
2022-10-04T14:15:36.393Z,101445.31
2022-10-04T14:19:28.758Z,101439.48
2022-10-04T14:23:36.856Z,101440.86
2022-10-04T14:27:31.712Z,101438.64
2022-10-04T14:31:39.588Z,101441.05
2022-10-04T14:35:35.212Z,101442.99
2022-10-04T14:39:36.428Z,101444.11
2022-10-04T14:43:49.968Z,101445.06
2022-10-04T14:47:51.965Z,101439.20
2022-10-04T14:51:37.121Z,101442.61
2022-10-04T14:55:12.500Z,101442.29
2022-10-04T14:59:07.878Z,101442.59
2022-10-04T15:03:07.484Z,101442.04
2022-10-04T15:07:00.107Z,101447.73
2022-10-04T15:10:58.230Z,101451.98
2022-10-04T15:15:09.261Z,101450.52
2022-10-04T15:18:51.168Z,101458.76
2022-10-04T15:22:41.315Z,101456.00
2022-10-04T15:26:40.633Z,101459.83
2022-10-04T15:30:27.574Z,101459.00
2022-10-04T15:34:42.111Z,101462.11
2022-10-04T15:38:55.216Z,101471.85
2022-10-04T15:42:52.630Z,101472.77
2022-10-04T15:46:51.910Z,101480.64
2022-10-04T15:50:49.522Z,101480.18
2022-10-04T15:54:51.096Z,101479.09
2022-10-04T15:58:51.996Z,101479.48
2022-10-04T16:02:44.019Z,101475.20
2022-10-04T16:06:28.905Z,101477.61
2022-10-04T16:09:46.890Z,101470.45
2022-10-04T16:13:52.055Z,101471.33
2022-10-04T16:17:55.630Z,101475.20
2022-10-04T16:21:54.724Z,101470.80
2022-10-04T16:26:05.133Z,101466.16
2022-10-04T16:30:02.383Z,101463.56
2022-10-04T16:34:11.362Z,101465.27
2022-10-04T16:38:06.723Z,101463.58
2022-10-04T16:42:11.904Z,101469.33
2022-10-04T16:46:07.392Z,101469.70
2022-10-04T16:49:44.980Z,101475.67
2022-10-04T16:53:31.699Z,101486.27
2022-10-04T16:57:32.292Z,101484.91
2022-10-04T17:01:32.469Z,101484.48
2022-10-04T17:05:30.843Z,101486.88
2022-10-04T17:09:29.376Z,101493.83
2022-10-04T17:13:31.284Z,101493.20
2022-10-04T17:17:38.880Z,101499.54
2022-10-04T17:21:40.316Z,101508.91
2022-10-04T17:25:31.303Z,101518.85
2022-10-04T17:29:19.956Z,101517.11
2022-10-04T17:33:21.081Z,101511.18
2022-10-04T17:37:18.888Z,101508.94
2022-10-04T17:40:57.906Z,101507.33
2022-10-04T17:44:47.506Z,101511.85
2022-10-04T17:48:46.883Z,101508.34
2022-10-04T17:52:40.307Z,101510.77
2022-10-04T17:56:29.754Z,101521.28
2022-10-04T18:00:19.053Z,101522.02
2022-10-04T18:04:14.781Z,101521.05
2022-10-04T18:08:08.051Z,101524.22
2022-10-04T18:11:46.646Z,101522.30
2022-10-04T18:15:43.849Z,101523.05
2022-10-04T18:18:48.206Z,101528.73
2022-10-04T18:22:31.106Z,101525.80
2022-10-04T18:26:09.855Z,101526.72
2022-10-04T18:29:41.514Z,101525.06
2022-10-04T18:33:28.383Z,101529.59
2022-10-04T18:37:17.286Z,101527.98
2022-10-04T18:41:09.701Z,101528.95
2022-10-04T18:44:54.861Z,101530.65
2022-10-04T18:48:44.945Z,101537.35
2022-10-04T18:52:30.874Z,101540.95
2022-10-04T18:56:03.442Z,101535.15
2022-10-04T18:59:56.132Z,101537.81
2022-10-04T19:03:54.270Z,101538.52
2022-10-04T19:07:34.475Z,101535.55
2022-10-04T19:10:59.009Z,101548.58
2022-10-04T19:14:40.852Z,101552.02
2022-10-04T19:18:25.809Z,101557.87
2022-10-04T19:22:02.150Z,101567.95
2022-10-04T19:26:26.183Z,101568.98
2022-10-04T19:29:51.995Z,101566.89
2022-10-04T19:33:47.014Z,101562.94
2022-10-04T19:37:18.595Z,101553.20
2022-10-04T19:41:10.928Z,101543.55
2022-10-04T19:44:36.343Z,101538.55
2022-10-04T19:48:25.984Z,101547.54
2022-10-04T19:52:29.900Z,101548.29
2022-10-04T19:56:37.192Z,101549.64
2022-10-04T20:00:26.131Z,101546.09
2022-10-04T20:04:13.568Z,101556.11
2022-10-04T20:07:59.276Z,101568.92
2022-10-04T20:11:32.918Z,101561.59
2022-10-04T20:15:14.785Z,101560.81
2022-10-04T20:19:12.897Z,101558.16
2022-10-04T20:22:47.881Z,101560.05
2022-10-04T20:26:52.985Z,101549.48
2022-10-04T20:30:39.513Z,101555.90
2022-10-04T20:34:17.237Z,101569.28
2022-10-04T20:37:37.866Z,101574.27
2022-10-04T20:41:30.193Z,101575.83
2022-10-04T20:45:20.680Z,101578.86
2022-10-04T20:48:49.046Z,101587.43
2022-10-04T20:52:37.985Z,101589.81
2022-10-04T20:56:21.897Z,101596.59
2022-10-04T20:59:55.032Z,101604.29
2022-10-04T21:03:46.734Z,101605.84
2022-10-04T21:07:12.443Z,101603.45
2022-10-04T21:10:48.297Z,101608.75
2022-10-04T21:14:43.148Z,101604.30
2022-10-04T21:18:40.873Z,101605.23
2022-10-04T21:22:27.995Z,101599.52
2022-10-04T21:26:28.603Z,101591.47
2022-10-04T21:30:07.273Z,101591.30
2022-10-04T21:33:31.859Z,101596.89
2022-10-04T21:37:20.964Z,101599.44
2022-10-04T21:41:10.627Z,101597.09
2022-10-04T21:44:58.001Z,101592.95
2022-10-04T21:48:26.586Z,101595.71
2022-10-04T21:51:47.707Z,101588.69
2022-10-04T21:55:36.573Z,101588.02
2022-10-04T21:59:25.611Z,101584.66
2022-10-04T22:03:14.391Z,101580.47
2022-10-04T22:06:43.849Z,101576.21
2022-10-04T22:10:33.099Z,101579.59
2022-10-04T22:14:08.312Z,101576.49
2022-10-04T22:17:27.142Z,101579.91
2022-10-04T22:20:56.952Z,101572.48
2022-10-04T22:24:45.782Z,101572.83
2022-10-04T22:27:52.414Z,101572.17
2022-10-04T22:31:01.506Z,101572.84
2022-10-04T22:34:41.347Z,101574.23
2022-10-04T22:37:49.717Z,101571.94
2022-10-04T22:41:13.901Z,101569.83
2022-10-04T22:45:05.891Z,101567.13
2022-10-04T22:48:15.306Z,101553.52
2022-10-04T22:51:55.047Z,101544.86
2022-10-04T22:55:26.468Z,101529.28
2022-10-04T22:59:05.241Z,101529.58
2022-10-04T23:02:34.354Z,101533.93
2022-10-04T23:06:13.056Z,101529.15
2022-10-04T23:10:00.981Z,101531.54
2022-10-04T23:13:49.858Z,101523.06
2022-10-04T23:17:13.683Z,101523.14
2022-10-04T23:20:26.188Z,101514.82
2022-10-04T23:24:15.116Z,101505.85
2022-10-04T23:27:55.855Z,101506.73
2022-10-04T23:31:16.105Z,101504.56
2022-10-04T23:33:57.900Z,101499.77
2022-10-04T23:37:22.978Z,101502.42
2022-10-04T23:40:55.795Z,101506.98
2022-10-04T23:44:05.465Z,101499.59
2022-10-04T23:47:35.175Z,101492.35
2022-10-04T23:50:57.955Z,101483.06
2022-10-04T23:54:32.699Z,101475.83
2022-10-04T23:58:10.505Z,101484.75
